sensor_id;sensor_type;location;lat;lon;timestamp;P1;durP1;ratioP1;P2;durP2;ratioP2
41861;SDS011;27537;57.134;-2.136;2023-02-11T00:00:56;1.00;;;0.90;;
41861;SDS011;27537;57.134;-2.136;2023-02-11T00:03:23;1.00;;;0.90;;
41861;SDS011;27537;57.134;-2.136;2023-02-11T00:06:00;0.80;;;0.80;;
41861;SDS011;27537;57.134;-2.136;2023-02-11T00:08:29;1.13;;;0.90;;
41861;SDS011;27537;57.134;-2.136;2023-02-11T00:10:56;1.00;;;0.90;;
41861;SDS011;27537;57.134;-2.136;2023-02-11T00:13:23;0.93;;;0.82;;
41861;SDS011;27537;57.134;-2.136;2023-02-11T00:15:51;0.82;;;0.75;;
41861;SDS011;27537;57.134;-2.136;2023-02-11T00:18:18;0.82;;;0.80;;
41861;SDS011;27537;57.134;-2.136;2023-02-11T00:20:45;1.30;;;0.90;;
41861;SDS011;27537;57.134;-2.136;2023-02-11T00:23:12;1.05;;;0.90;;
41861;SDS011;27537;57.134;-2.136;2023-02-11T00:25:43;1.10;;;0.90;;
41861;SDS011;27537;57.134;-2.136;2023-02-11T00:28:10;1.10;;;0.90;;
41861;SDS011;27537;57.134;-2.136;2023-02-11T00:30:38;1.00;;;0.90;;
41861;SDS011;27537;57.134;-2.136;2023-02-11T00:33:05;0.95;;;0.80;;
41861;SDS011;27537;57.134;-2.136;2023-02-11T00:35:32;0.90;;;0.80;;
41861;SDS011;27537;57.134;-2.136;2023-02-11T00:37:58;1.25;;;0.90;;
41861;SDS011;27537;57.134;-2.136;2023-02-11T00:40:25;0.82;;;0.80;;
41861;SDS011;27537;57.134;-2.136;2023-02-11T00:42:52;1.13;;;0.90;;
41861;SDS011;27537;57.134;-2.136;2023-02-11T00:45:19;1.25;;;0.90;;
41861;SDS011;27537;57.134;-2.136;2023-02-11T00:47:46;0.90;;;0.80;;
41861;SDS011;27537;57.134;-2.136;2023-02-11T00:50:13;1.27;;;0.80;;
41861;SDS011;27537;57.134;-2.136;2023-02-11T00:52:40;0.90;;;0.80;;
41861;SDS011;27537;57.134;-2.136;2023-02-11T00:55:07;0.90;;;0.80;;
41861;SDS011;27537;57.134;-2.136;2023-02-11T00:57:34;1.65;;;0.90;;
41861;SDS011;27537;57.134;-2.136;2023-02-11T01:00:01;0.82;;;0.80;;
41861;SDS011;27537;57.134;-2.136;2023-02-11T01:02:29;0.80;;;0.80;;
41861;SDS011;27537;57.134;-2.136;2023-02-11T01:04:56;1.05;;;0.80;;
41861;SDS011;27537;57.134;-2.136;2023-02-11T01:07:25;1.35;;;0.80;;
41861;SDS011;27537;57.134;-2.136;2023-02-11T01:09:53;0.80;;;0.80;;
41861;SDS011;27537;57.134;-2.136;2023-02-11T01:12:20;0.82;;;0.80;;
41861;SDS011;27537;57.134;-2.136;2023-02-11T01:14:47;1.13;;;0.85;;
41861;SDS011;27537;57.134;-2.136;2023-02-11T01:17:14;0.90;;;0.75;;
41861;SDS011;27537;57.134;-2.136;2023-02-11T01:19:41;0.80;;;0.80;;
41861;SDS011;27537;57.134;-2.136;2023-02-11T01:22:08;1.00;;;0.80;;
41861;SDS011;27537;57.134;-2.136;2023-02-11T01:24:35;1.13;;;0.80;;
41861;SDS011;27537;57.134;-2.136;2023-02-11T01:27:02;1.30;;;0.90;;
41861;SDS011;27537;57.134;-2.136;2023-02-11T01:29:29;0.70;;;0.70;;
41861;SDS011;27537;57.134;-2.136;2023-02-11T01:31:55;0.85;;;0.80;;
41861;SDS011;27537;57.134;-2.136;2023-02-11T01:34:22;1.13;;;0.80;;
41861;SDS011;27537;57.134;-2.136;2023-02-11T01:36:49;0.85;;;0.82;;
41861;SDS011;27537;57.134;-2.136;2023-02-11T01:39:16;1.10;;;0.70;;
41861;SDS011;27537;57.134;-2.136;2023-02-11T01:41:42;1.33;;;0.90;;
41861;SDS011;27537;57.134;-2.136;2023-02-11T01:46:57;1.05;;;0.77;;
41861;SDS011;27537;57.134;-2.136;2023-02-11T01:49:27;0.70;;;0.70;;
41861;SDS011;27537;57.134;-2.136;2023-02-11T01:51:59;0.73;;;0.70;;
41861;SDS011;27537;57.134;-2.136;2023-02-11T01:54:34;0.70;;;0.70;;
41861;SDS011;27537;57.134;-2.136;2023-02-11T01:57:25;0.70;;;0.70;;
41861;SDS011;27537;57.134;-2.136;2023-02-11T02:02:42;0.90;;;0.80;;
41861;SDS011;27537;57.134;-2.136;2023-02-11T02:09:10;0.70;;;0.70;;
41861;SDS011;27537;57.134;-2.136;2023-02-11T02:11:12;0.90;;;0.80;;
41861;SDS011;27537;57.134;-2.136;2023-02-11T02:13:38;0.85;;;0.80;;
41861;SDS011;27537;57.134;-2.136;2023-02-11T02:16:07;0.70;;;0.70;;
41861;SDS011;27537;57.134;-2.136;2023-02-11T02:21:58;1.38;;;0.98;;
41861;SDS011;27537;57.134;-2.136;2023-02-11T02:30:02;0.80;;;0.77;;
41861;SDS011;27537;57.134;-2.136;2023-02-11T02:37:46;0.82;;;0.80;;
41861;SDS011;27537;57.134;-2.136;2023-02-11T02:40:30;0.98;;;0.80;;
41861;SDS011;27537;57.134;-2.136;2023-02-11T02:43:00;1.00;;;0.90;;
41861;SDS011;27537;57.134;-2.136;2023-02-11T02:45:28;1.13;;;0.80;;
41861;SDS011;27537;57.134;-2.136;2023-02-11T02:47:55;1.00;;;0.90;;
41861;SDS011;27537;57.134;-2.136;2023-02-11T02:50:23;1.02;;;0.80;;
41861;SDS011;27537;57.134;-2.136;2023-02-11T03:06:45;1.20;;;0.80;;
41861;SDS011;27537;57.134;-2.136;2023-02-11T03:11:43;1.50;;;0.88;;
41861;SDS011;27537;57.134;-2.136;2023-02-11T03:14:12;1.58;;;0.90;;
41861;SDS011;27537;57.134;-2.136;2023-02-11T03:16:42;2.25;;;0.90;;
41861;SDS011;27537;57.134;-2.136;2023-02-11T03:19:21;1.00;;;0.90;;
41861;SDS011;27537;57.134;-2.136;2023-02-11T03:21:52;1.33;;;0.90;;
41861;SDS011;27537;57.134;-2.136;2023-02-11T03:24:29;2.03;;;0.90;;
41861;SDS011;27537;57.134;-2.136;2023-02-11T03:29:53;1.58;;;1.00;;
41861;SDS011;27537;57.134;-2.136;2023-02-11T03:32:52;1.10;;;0.93;;
41861;SDS011;27537;57.134;-2.136;2023-02-11T03:35:32;1.52;;;0.90;;
41861;SDS011;27537;57.134;-2.136;2023-02-11T03:38:06;1.20;;;0.82;;
41861;SDS011;27537;57.134;-2.136;2023-02-11T03:40:40;1.67;;;0.90;;
41861;SDS011;27537;57.134;-2.136;2023-02-11T03:43:14;0.80;;;0.80;;
41861;SDS011;27537;57.134;-2.136;2023-02-11T03:45:44;1.20;;;0.90;;
41861;SDS011;27537;57.134;-2.136;2023-02-11T03:48:15;1.10;;;0.88;;
41861;SDS011;27537;57.134;-2.136;2023-02-11T03:50:42;1.10;;;0.90;;
41861;SDS011;27537;57.134;-2.136;2023-02-11T03:53:13;0.93;;;0.80;;
41861;SDS011;27537;57.134;-2.136;2023-02-11T03:55:41;1.15;;;0.90;;
41861;SDS011;27537;57.134;-2.136;2023-02-11T03:58:11;1.70;;;1.17;;
41861;SDS011;27537;57.134;-2.136;2023-02-11T04:00:39;2.55;;;1.10;;
41861;SDS011;27537;57.134;-2.136;2023-02-11T04:03:07;1.00;;;0.85;;
41861;SDS011;27537;57.134;-2.136;2023-02-11T04:05:35;0.80;;;0.80;;
41861;SDS011;27537;57.134;-2.136;2023-02-11T04:08:02;1.33;;;0.90;;
41861;SDS011;27537;57.134;-2.136;2023-02-11T04:10:30;2.15;;;0.90;;
41861;SDS011;27537;57.134;-2.136;2023-02-11T04:12:57;1.35;;;1.00;;
41861;SDS011;27537;57.134;-2.136;2023-02-11T04:15:23;1.38;;;0.90;;
41861;SDS011;27537;57.134;-2.136;2023-02-11T04:17:50;1.15;;;0.80;;
41861;SDS011;27537;57.134;-2.136;2023-02-11T04:20:17;1.38;;;0.90;;
41861;SDS011;27537;57.134;-2.136;2023-02-11T04:22:44;0.80;;;0.80;;
41861;SDS011;27537;57.134;-2.136;2023-02-11T04:25:10;0.90;;;0.80;;
41861;SDS011;27537;57.134;-2.136;2023-02-11T04:27:37;1.67;;;0.80;;
41861;SDS011;27537;57.134;-2.136;2023-02-11T04:30:04;1.38;;;0.80;;
41861;SDS011;27537;57.134;-2.136;2023-02-11T04:32:32;2.33;;;0.90;;
41861;SDS011;27537;57.134;-2.136;2023-02-11T04:34:59;0.90;;;0.80;;
41861;SDS011;27537;57.134;-2.136;2023-02-11T04:37:25;1.33;;;0.90;;
41861;SDS011;27537;57.134;-2.136;2023-02-11T04:39:52;0.80;;;0.75;;
41861;SDS011;27537;57.134;-2.136;2023-02-11T04:42:19;0.90;;;0.80;;
41861;SDS011;27537;57.134;-2.136;2023-02-11T04:44:46;1.00;;;0.90;;
41861;SDS011;27537;57.134;-2.136;2023-02-11T04:47:12;1.90;;;0.80;;
41861;SDS011;27537;57.134;-2.136;2023-02-11T04:49:40;0.98;;;0.80;;
41861;SDS011;27537;57.134;-2.136;2023-02-11T04:52:08;1.33;;;0.90;;
41861;SDS011;27537;57.134;-2.136;2023-02-11T04:54:35;1.83;;;0.90;;
41861;SDS011;27537;57.134;-2.136;2023-02-11T04:57:01;1.65;;;0.90;;
41861;SDS011;27537;57.134;-2.136;2023-02-11T04:59:28;1.02;;;0.80;;
41861;SDS011;27537;57.134;-2.136;2023-02-11T05:01:55;1.15;;;0.90;;
41861;SDS011;27537;57.134;-2.136;2023-02-11T05:04:22;0.80;;;0.80;;
41861;SDS011;27537;57.134;-2.136;2023-02-11T05:06:49;1.98;;;0.90;;
41861;SDS011;27537;57.134;-2.136;2023-02-11T05:09:16;1.00;;;0.80;;
41861;SDS011;27537;57.134;-2.136;2023-02-11T05:11:43;1.50;;;0.90;;
41861;SDS011;27537;57.134;-2.136;2023-02-11T05:14:09;1.27;;;0.88;;
41861;SDS011;27537;57.134;-2.136;2023-02-11T05:16:36;1.42;;;0.90;;
41861;SDS011;27537;57.134;-2.136;2023-02-11T05:19:03;1.00;;;0.80;;
41861;SDS011;27537;57.134;-2.136;2023-02-11T05:21:30;0.80;;;0.77;;
41861;SDS011;27537;57.134;-2.136;2023-02-11T05:23:57;1.73;;;0.90;;
41861;SDS011;27537;57.134;-2.136;2023-02-11T05:26:23;1.00;;;0.90;;
41861;SDS011;27537;57.134;-2.136;2023-02-11T05:28:50;0.70;;;0.70;;
41861;SDS011;27537;57.134;-2.136;2023-02-11T05:31:17;1.10;;;0.90;;
41861;SDS011;27537;57.134;-2.136;2023-02-11T05:33:44;1.27;;;0.80;;
41861;SDS011;27537;57.134;-2.136;2023-02-11T05:36:11;1.00;;;0.85;;
41861;SDS011;27537;57.134;-2.136;2023-02-11T05:38:39;1.00;;;0.80;;
41861;SDS011;27537;57.134;-2.136;2023-02-11T05:41:08;0.80;;;0.80;;
41861;SDS011;27537;57.134;-2.136;2023-02-11T05:43:36;1.05;;;0.80;;
41861;SDS011;27537;57.134;-2.136;2023-02-11T05:46:03;1.02;;;0.82;;
41861;SDS011;27537;57.134;-2.136;2023-02-11T05:48:30;1.00;;;0.90;;
41861;SDS011;27537;57.134;-2.136;2023-02-11T05:50:57;2.10;;;0.93;;
41861;SDS011;27537;57.134;-2.136;2023-02-11T05:53:24;0.80;;;0.80;;
41861;SDS011;27537;57.134;-2.136;2023-02-11T05:55:51;0.80;;;0.80;;
41861;SDS011;27537;57.134;-2.136;2023-02-11T05:58:18;0.82;;;0.82;;
41861;SDS011;27537;57.134;-2.136;2023-02-11T06:00:45;0.80;;;0.77;;
41861;SDS011;27537;57.134;-2.136;2023-02-11T06:03:12;1.00;;;0.90;;
41861;SDS011;27537;57.134;-2.136;2023-02-11T06:05:38;3.30;;;1.00;;
41861;SDS011;27537;57.134;-2.136;2023-02-11T06:08:05;1.50;;;0.80;;
41861;SDS011;27537;57.134;-2.136;2023-02-11T06:10:32;1.15;;;0.90;;
41861;SDS011;27537;57.134;-2.136;2023-02-11T06:12:59;1.38;;;0.90;;
41861;SDS011;27537;57.134;-2.136;2023-02-11T06:15:27;1.45;;;1.00;;
41861;SDS011;27537;57.134;-2.136;2023-02-11T06:17:54;1.02;;;0.90;;
41861;SDS011;27537;57.134;-2.136;2023-02-11T06:20:21;1.88;;;1.00;;
41861;SDS011;27537;57.134;-2.136;2023-02-11T06:22:47;1.40;;;0.90;;
41861;SDS011;27537;57.134;-2.136;2023-02-11T06:25:14;1.17;;;1.00;;
41861;SDS011;27537;57.134;-2.136;2023-02-11T06:27:41;3.15;;;1.10;;
41861;SDS011;27537;57.134;-2.136;2023-02-11T06:30:08;1.40;;;0.98;;
41861;SDS011;27537;57.134;-2.136;2023-02-11T06:32:35;1.20;;;0.80;;
41861;SDS011;27537;57.134;-2.136;2023-02-11T06:35:10;2.20;;;0.90;;
41861;SDS011;27537;57.134;-2.136;2023-02-11T06:37:38;1.30;;;0.82;;
41861;SDS011;27537;57.134;-2.136;2023-02-11T06:40:06;1.00;;;0.90;;
41861;SDS011;27537;57.134;-2.136;2023-02-11T06:42:33;1.13;;;0.93;;
41861;SDS011;27537;57.134;-2.136;2023-02-11T06:45:01;1.85;;;0.90;;
41861;SDS011;27537;57.134;-2.136;2023-02-11T06:47:31;1.20;;;0.80;;
41861;SDS011;27537;57.134;-2.136;2023-02-11T06:49:58;0.90;;;0.80;;
41861;SDS011;27537;57.134;-2.136;2023-02-11T06:52:25;1.50;;;0.93;;
41861;SDS011;27537;57.134;-2.136;2023-02-11T06:54:51;0.90;;;0.80;;
41861;SDS011;27537;57.134;-2.136;2023-02-11T06:57:18;1.73;;;0.90;;
41861;SDS011;27537;57.134;-2.136;2023-02-11T06:59:45;1.00;;;0.80;;
41861;SDS011;27537;57.134;-2.136;2023-02-11T07:02:12;1.00;;;0.90;;
41861;SDS011;27537;57.134;-2.136;2023-02-11T07:04:39;1.17;;;0.90;;
41861;SDS011;27537;57.134;-2.136;2023-02-11T07:07:06;2.95;;;0.90;;
41861;SDS011;27537;57.134;-2.136;2023-02-11T07:09:33;2.03;;;0.95;;
41861;SDS011;27537;57.134;-2.136;2023-02-11T07:11:59;1.30;;;0.90;;
41861;SDS011;27537;57.134;-2.136;2023-02-11T07:14:26;1.55;;;1.00;;
41861;SDS011;27537;57.134;-2.136;2023-02-11T07:16:53;2.40;;;0.90;;
41861;SDS011;27537;57.134;-2.136;2023-02-11T07:19:19;2.35;;;1.00;;
41861;SDS011;27537;57.134;-2.136;2023-02-11T07:21:46;1.75;;;1.00;;
41861;SDS011;27537;57.134;-2.136;2023-02-11T07:24:14;1.25;;;0.98;;
41861;SDS011;27537;57.134;-2.136;2023-02-11T07:26:40;1.58;;;0.95;;
41861;SDS011;27537;57.134;-2.136;2023-02-11T07:29:07;3.17;;;1.10;;
41861;SDS011;27537;57.134;-2.136;2023-02-11T07:31:34;1.60;;;0.90;;
41861;SDS011;27537;57.134;-2.136;2023-02-11T07:34:01;3.13;;;1.30;;
41861;SDS011;27537;57.134;-2.136;2023-02-11T07:36:28;1.42;;;1.00;;
41861;SDS011;27537;57.134;-2.136;2023-02-11T07:38:57;2.33;;;1.05;;
41861;SDS011;27537;57.134;-2.136;2023-02-11T07:41:25;3.15;;;1.10;;
41861;SDS011;27537;57.134;-2.136;2023-02-11T07:43:52;2.42;;;1.00;;
41861;SDS011;27537;57.134;-2.136;2023-02-11T07:46:22;1.35;;;0.90;;
41861;SDS011;27537;57.134;-2.136;2023-02-11T07:48:51;2.90;;;1.00;;
41861;SDS011;27537;57.134;-2.136;2023-02-11T07:51:21;1.73;;;1.08;;
41861;SDS011;27537;57.134;-2.136;2023-02-11T07:53:49;1.85;;;1.00;;
41861;SDS011;27537;57.134;-2.136;2023-02-11T07:56:17;1.80;;;0.90;;
41861;SDS011;27537;57.134;-2.136;2023-02-11T07:58:45;2.55;;;0.90;;
41861;SDS011;27537;57.134;-2.136;2023-02-11T08:01:15;1.60;;;0.98;;
41861;SDS011;27537;57.134;-2.136;2023-02-11T08:03:51;1.45;;;0.90;;
41861;SDS011;27537;57.134;-2.136;2023-02-11T08:06:19;1.83;;;0.98;;
41861;SDS011;27537;57.134;-2.136;2023-02-11T08:08:48;2.25;;;1.00;;
41861;SDS011;27537;57.134;-2.136;2023-02-11T08:11:20;2.22;;;1.02;;
41861;SDS011;27537;57.134;-2.136;2023-02-11T08:13:52;1.15;;;0.93;;
41861;SDS011;27537;57.134;-2.136;2023-02-11T08:16:21;2.85;;;1.20;;
41861;SDS011;27537;57.134;-2.136;2023-02-11T08:18:50;2.35;;;1.30;;
41861;SDS011;27537;57.134;-2.136;2023-02-11T08:21:18;3.10;;;1.00;;
41861;SDS011;27537;57.134;-2.136;2023-02-11T08:23:46;2.55;;;1.10;;
41861;SDS011;27537;57.134;-2.136;2023-02-11T08:26:14;2.47;;;1.20;;
41861;SDS011;27537;57.134;-2.136;2023-02-11T08:28:44;2.83;;;1.10;;
41861;SDS011;27537;57.134;-2.136;2023-02-11T08:31:13;3.00;;;1.05;;
41861;SDS011;27537;57.134;-2.136;2023-02-11T08:33:46;2.28;;;1.10;;
41861;SDS011;27537;57.134;-2.136;2023-02-11T08:38:41;1.55;;;1.00;;
41861;SDS011;27537;57.134;-2.136;2023-02-11T08:41:09;3.80;;;1.17;;
41861;SDS011;27537;57.134;-2.136;2023-02-11T08:43:36;4.43;;;1.13;;
41861;SDS011;27537;57.134;-2.136;2023-02-11T08:46:07;1.95;;;1.00;;
41861;SDS011;27537;57.134;-2.136;2023-02-11T08:48:35;1.95;;;1.00;;
41861;SDS011;27537;57.134;-2.136;2023-02-11T08:51:08;1.55;;;1.10;;
41861;SDS011;27537;57.134;-2.136;2023-02-11T08:53:39;2.17;;;1.00;;
41861;SDS011;27537;57.134;-2.136;2023-02-11T08:56:06;2.85;;;1.00;;
41861;SDS011;27537;57.134;-2.136;2023-02-11T08:58:38;5.32;;;1.20;;
41861;SDS011;27537;57.134;-2.136;2023-02-11T09:01:12;4.93;;;1.30;;
41861;SDS011;27537;57.134;-2.136;2023-02-11T09:03:40;1.58;;;1.02;;
41861;SDS011;27537;57.134;-2.136;2023-02-11T09:06:08;2.63;;;1.15;;
41861;SDS011;27537;57.134;-2.136;2023-02-11T09:08:36;1.77;;;0.93;;
41861;SDS011;27537;57.134;-2.136;2023-02-11T09:11:05;2.30;;;1.00;;
41861;SDS011;27537;57.134;-2.136;2023-02-11T09:13:32;3.30;;;1.00;;
41861;SDS011;27537;57.134;-2.136;2023-02-11T09:16:00;3.55;;;1.52;;
41861;SDS011;27537;57.134;-2.136;2023-02-11T09:18:30;1.33;;;0.90;;
41861;SDS011;27537;57.134;-2.136;2023-02-11T09:21:01;2.13;;;1.02;;
41861;SDS011;27537;57.134;-2.136;2023-02-11T09:23:28;3.08;;;0.90;;
41861;SDS011;27537;57.134;-2.136;2023-02-11T09:25:56;2.38;;;0.90;;
41861;SDS011;27537;57.134;-2.136;2023-02-11T09:28:23;1.83;;;1.00;;
41861;SDS011;27537;57.134;-2.136;2023-02-11T09:30:49;1.58;;;0.90;;
41861;SDS011;27537;57.134;-2.136;2023-02-11T09:33:17;2.20;;;0.95;;
41861;SDS011;27537;57.134;-2.136;2023-02-11T09:35:43;3.25;;;1.00;;
41861;SDS011;27537;57.134;-2.136;2023-02-11T09:38:10;2.40;;;1.00;;
41861;SDS011;27537;57.134;-2.136;2023-02-11T09:40:43;2.38;;;1.00;;
41861;SDS011;27537;57.134;-2.136;2023-02-11T09:43:18;1.95;;;0.90;;
41861;SDS011;27537;57.134;-2.136;2023-02-11T09:45:47;2.38;;;1.00;;
41861;SDS011;27537;57.134;-2.136;2023-02-11T09:48:19;1.92;;;1.00;;
41861;SDS011;27537;57.134;-2.136;2023-02-11T09:53:24;1.70;;;1.00;;
41861;SDS011;27537;57.134;-2.136;2023-02-11T09:55:53;2.05;;;1.10;;
41861;SDS011;27537;57.134;-2.136;2023-02-11T10:01:05;1.35;;;0.80;;
41861;SDS011;27537;57.134;-2.136;2023-02-11T10:08:58;2.08;;;0.93;;
41861;SDS011;27537;57.134;-2.136;2023-02-11T10:12:15;1.05;;;0.80;;
41861;SDS011;27537;57.134;-2.136;2023-02-11T10:23:35;2.28;;;1.25;;
41861;SDS011;27537;57.134;-2.136;2023-02-11T10:26:13;0.80;;;0.80;;
41861;SDS011;27537;57.134;-2.136;2023-02-11T10:28:43;1.55;;;0.95;;
41861;SDS011;27537;57.134;-2.136;2023-02-11T10:31:14;2.67;;;0.90;;
41861;SDS011;27537;57.134;-2.136;2023-02-11T10:33:48;1.55;;;0.90;;
41861;SDS011;27537;57.134;-2.136;2023-02-11T10:36:19;2.35;;;1.00;;
41861;SDS011;27537;57.134;-2.136;2023-02-11T10:38:52;2.03;;;1.00;;
41861;SDS011;27537;57.134;-2.136;2023-02-11T10:41:20;2.72;;;1.00;;
41861;SDS011;27537;57.134;-2.136;2023-02-11T10:43:52;16.38;;;6.25;;
41861;SDS011;27537;57.134;-2.136;2023-02-11T10:46:28;19.98;;;9.30;;
41861;SDS011;27537;57.134;-2.136;2023-02-11T10:49:00;19.95;;;8.45;;
41861;SDS011;27537;57.134;-2.136;2023-02-11T10:51:42;13.30;;;5.55;;
41861;SDS011;27537;57.134;-2.136;2023-02-11T10:54:16;9.57;;;3.00;;
41861;SDS011;27537;57.134;-2.136;2023-02-11T10:56:49;6.60;;;2.17;;
41861;SDS011;27537;57.134;-2.136;2023-02-11T10:59:28;4.25;;;1.65;;
41861;SDS011;27537;57.134;-2.136;2023-02-11T11:02:03;3.95;;;1.30;;
41861;SDS011;27537;57.134;-2.136;2023-02-11T11:04:42;3.65;;;1.20;;
41861;SDS011;27537;57.134;-2.136;2023-02-11T11:09:47;7.78;;;2.70;;
41861;SDS011;27537;57.134;-2.136;2023-02-11T11:15:33;6.13;;;1.52;;
41861;SDS011;27537;57.134;-2.136;2023-02-11T11:17:48;2.63;;;1.23;;
41861;SDS011;27537;57.134;-2.136;2023-02-11T11:20:25;4.22;;;1.35;;
41861;SDS011;27537;57.134;-2.136;2023-02-11T11:25:45;1.63;;;0.90;;
41861;SDS011;27537;57.134;-2.136;2023-02-11T11:31:20;1.35;;;0.85;;
41861;SDS011;27537;57.134;-2.136;2023-02-11T11:34:01;1.17;;;0.70;;
41861;SDS011;27537;57.134;-2.136;2023-02-11T11:36:43;2.55;;;1.00;;
41861;SDS011;27537;57.134;-2.136;2023-02-11T11:39:18;3.58;;;0.90;;
41861;SDS011;27537;57.134;-2.136;2023-02-11T11:41:49;4.18;;;0.88;;
41861;SDS011;27537;57.134;-2.136;2023-02-11T11:44:27;1.42;;;0.80;;
41861;SDS011;27537;57.134;-2.136;2023-02-11T11:49:55;1.40;;;0.90;;
41861;SDS011;27537;57.134;-2.136;2023-02-11T11:52:42;2.78;;;1.00;;
41861;SDS011;27537;57.134;-2.136;2023-02-11T11:55:28;2.60;;;0.95;;
41861;SDS011;27537;57.134;-2.136;2023-02-11T11:58:00;3.92;;;0.82;;
41861;SDS011;27537;57.134;-2.136;2023-02-11T12:00:43;1.98;;;0.90;;
41861;SDS011;27537;57.134;-2.136;2023-02-11T12:08:59;1.15;;;0.80;;
41861;SDS011;27537;57.134;-2.136;2023-02-11T12:11:33;1.10;;;0.80;;
41861;SDS011;27537;57.134;-2.136;2023-02-11T12:16:38;0.80;;;0.80;;
41861;SDS011;27537;57.134;-2.136;2023-02-11T12:22:09;1.45;;;0.90;;
41861;SDS011;27537;57.134;-2.136;2023-02-11T12:33:05;1.08;;;0.88;;
41861;SDS011;27537;57.134;-2.136;2023-02-11T12:38:37;3.28;;;1.08;;
41861;SDS011;27537;57.134;-2.136;2023-02-11T12:44:15;3.58;;;1.00;;
41861;SDS011;27537;57.134;-2.136;2023-02-11T12:49:49;1.88;;;0.90;;
41861;SDS011;27537;57.134;-2.136;2023-02-11T12:52:28;2.47;;;1.05;;
41861;SDS011;27537;57.134;-2.136;2023-02-11T12:55:10;3.90;;;1.00;;
41861;SDS011;27537;57.134;-2.136;2023-02-11T12:57:43;3.08;;;0.98;;
41861;SDS011;27537;57.134;-2.136;2023-02-11T13:00:39;1.80;;;0.90;;
41861;SDS011;27537;57.134;-2.136;2023-02-11T13:03:18;1.13;;;0.88;;
41861;SDS011;27537;57.134;-2.136;2023-02-11T13:05:55;3.63;;;0.93;;
41861;SDS011;27537;57.134;-2.136;2023-02-11T13:08:29;1.50;;;0.80;;
41861;SDS011;27537;57.134;-2.136;2023-02-11T13:11:16;4.10;;;1.15;;
41861;SDS011;27537;57.134;-2.136;2023-02-11T13:16:17;2.30;;;1.00;;
41861;SDS011;27537;57.134;-2.136;2023-02-11T13:24:21;5.68;;;1.20;;
41861;SDS011;27537;57.134;-2.136;2023-02-11T13:30:24;2.72;;;1.10;;
41861;SDS011;27537;57.134;-2.136;2023-02-11T13:37:56;0.70;;;0.70;;
41861;SDS011;27537;57.134;-2.136;2023-02-11T13:40:35;1.20;;;0.80;;
41861;SDS011;27537;57.134;-2.136;2023-02-11T13:43:04;0.70;;;0.70;;
41861;SDS011;27537;57.134;-2.136;2023-02-11T13:45:47;1.02;;;0.73;;
41861;SDS011;27537;57.134;-2.136;2023-02-11T13:48:16;0.85;;;0.77;;
41861;SDS011;27537;57.134;-2.136;2023-02-11T13:50:54;1.23;;;0.82;;
41861;SDS011;27537;57.134;-2.136;2023-02-11T13:53:23;1.45;;;0.80;;
41861;SDS011;27537;57.134;-2.136;2023-02-11T13:55:53;1.60;;;0.85;;
41861;SDS011;27537;57.134;-2.136;2023-02-11T13:58:35;2.33;;;0.80;;
41861;SDS011;27537;57.134;-2.136;2023-02-11T14:01:12;2.95;;;0.80;;
41861;SDS011;27537;57.134;-2.136;2023-02-11T14:14:10;1.33;;;0.88;;
41861;SDS011;27537;57.134;-2.136;2023-02-11T14:19:32;3.70;;;1.35;;
41861;SDS011;27537;57.134;-2.136;2023-02-11T14:22:03;1.85;;;0.95;;
41861;SDS011;27537;57.134;-2.136;2023-02-11T14:24:45;0.70;;;0.70;;
41861;SDS011;27537;57.134;-2.136;2023-02-11T14:39:05;1.08;;;0.75;;
41861;SDS011;27537;57.134;-2.136;2023-02-11T14:41:40;1.27;;;0.80;;
41861;SDS011;27537;57.134;-2.136;2023-02-11T14:44:15;1.13;;;0.90;;
41861;SDS011;27537;57.134;-2.136;2023-02-11T14:46:46;2.30;;;1.02;;
41861;SDS011;27537;57.134;-2.136;2023-02-11T14:49:18;4.78;;;0.90;;
41861;SDS011;27537;57.134;-2.136;2023-02-11T14:54:39;1.33;;;0.82;;
41861;SDS011;27537;57.134;-2.136;2023-02-11T14:57:16;1.73;;;1.00;;
41861;SDS011;27537;57.134;-2.136;2023-02-11T14:59:55;1.40;;;0.90;;
41861;SDS011;27537;57.134;-2.136;2023-02-11T15:02:27;2.10;;;0.95;;
41861;SDS011;27537;57.134;-2.136;2023-02-11T15:05:15;1.55;;;0.90;;
41861;SDS011;27537;57.134;-2.136;2023-02-11T15:07:55;2.58;;;1.02;;
41861;SDS011;27537;57.134;-2.136;2023-02-11T15:10:34;3.47;;;0.90;;
41861;SDS011;27537;57.134;-2.136;2023-02-11T15:15:40;1.50;;;0.98;;
41861;SDS011;27537;57.134;-2.136;2023-02-11T15:18:07;2.13;;;0.90;;
41861;SDS011;27537;57.134;-2.136;2023-02-11T15:20:35;2.50;;;1.00;;
41861;SDS011;27537;57.134;-2.136;2023-02-11T15:23:04;1.10;;;0.80;;
41861;SDS011;27537;57.134;-2.136;2023-02-11T15:25:46;1.13;;;0.90;;
41861;SDS011;27537;57.134;-2.136;2023-02-11T15:28:24;1.35;;;0.90;;
41861;SDS011;27537;57.134;-2.136;2023-02-11T15:30:58;1.88;;;0.98;;
41861;SDS011;27537;57.134;-2.136;2023-02-11T15:33:30;1.05;;;0.90;;
41861;SDS011;27537;57.134;-2.136;2023-02-11T15:35:58;2.00;;;1.08;;
41861;SDS011;27537;57.134;-2.136;2023-02-11T15:38:27;2.40;;;1.00;;
41861;SDS011;27537;57.134;-2.136;2023-02-11T15:40:59;2.67;;;1.00;;
41861;SDS011;27537;57.134;-2.136;2023-02-11T15:43:43;4.38;;;1.10;;
41861;SDS011;27537;57.134;-2.136;2023-02-11T15:46:12;1.92;;;1.00;;
41861;SDS011;27537;57.134;-2.136;2023-02-11T15:51:12;2.30;;;1.08;;
41861;SDS011;27537;57.134;-2.136;2023-02-11T15:53:56;2.60;;;1.00;;
41861;SDS011;27537;57.134;-2.136;2023-02-11T15:56:37;1.40;;;0.85;;
41861;SDS011;27537;57.134;-2.136;2023-02-11T15:59:19;2.03;;;1.00;;
41861;SDS011;27537;57.134;-2.136;2023-02-11T16:01:51;1.45;;;1.00;;
41861;SDS011;27537;57.134;-2.136;2023-02-11T16:04:21;1.83;;;1.00;;
41861;SDS011;27537;57.134;-2.136;2023-02-11T16:06:51;4.68;;;1.30;;
41861;SDS011;27537;57.134;-2.136;2023-02-11T16:09:21;1.75;;;1.00;;
41861;SDS011;27537;57.134;-2.136;2023-02-11T16:12:03;1.90;;;1.08;;
41861;SDS011;27537;57.134;-2.136;2023-02-11T16:14:46;3.10;;;1.13;;
41861;SDS011;27537;57.134;-2.136;2023-02-11T16:17:23;2.08;;;1.20;;
41861;SDS011;27537;57.134;-2.136;2023-02-11T16:19:53;1.70;;;1.00;;
41861;SDS011;27537;57.134;-2.136;2023-02-11T16:22:24;2.75;;;1.00;;
41861;SDS011;27537;57.134;-2.136;2023-02-11T16:24:54;2.00;;;0.90;;
41861;SDS011;27537;57.134;-2.136;2023-02-11T16:27:37;1.60;;;1.00;;
41861;SDS011;27537;57.134;-2.136;2023-02-11T16:30:20;2.08;;;0.98;;
41861;SDS011;27537;57.134;-2.136;2023-02-11T16:32:52;2.97;;;1.13;;
41861;SDS011;27537;57.134;-2.136;2023-02-11T16:35:19;1.30;;;0.90;;
41861;SDS011;27537;57.134;-2.136;2023-02-11T16:37:46;3.17;;;1.20;;
41861;SDS011;27537;57.134;-2.136;2023-02-11T16:40:13;3.30;;;1.40;;
41861;SDS011;27537;57.134;-2.136;2023-02-11T16:42:40;3.67;;;1.42;;
41861;SDS011;27537;57.134;-2.136;2023-02-11T16:45:08;4.72;;;1.35;;
41861;SDS011;27537;57.134;-2.136;2023-02-11T16:47:35;4.43;;;1.50;;
41861;SDS011;27537;57.134;-2.136;2023-02-11T16:50:09;5.00;;;1.60;;
41861;SDS011;27537;57.134;-2.136;2023-02-11T16:52:44;4.32;;;1.60;;
41861;SDS011;27537;57.134;-2.136;2023-02-11T16:55:12;3.33;;;1.30;;
41861;SDS011;27537;57.134;-2.136;2023-02-11T16:57:40;8.50;;;2.80;;
41861;SDS011;27537;57.134;-2.136;2023-02-11T17:00:07;2.60;;;1.20;;
41861;SDS011;27537;57.134;-2.136;2023-02-11T17:02:35;3.13;;;1.33;;
41861;SDS011;27537;57.134;-2.136;2023-02-11T17:05:04;3.28;;;1.38;;
41861;SDS011;27537;57.134;-2.136;2023-02-11T17:07:32;2.08;;;1.10;;
41861;SDS011;27537;57.134;-2.136;2023-02-11T17:09:59;2.33;;;1.25;;
41861;SDS011;27537;57.134;-2.136;2023-02-11T17:12:26;6.75;;;1.92;;
41861;SDS011;27537;57.134;-2.136;2023-02-11T17:14:53;6.05;;;1.67;;
41861;SDS011;27537;57.134;-2.136;2023-02-11T17:17:20;3.95;;;1.55;;
41861;SDS011;27537;57.134;-2.136;2023-02-11T17:19:49;4.85;;;2.28;;
41861;SDS011;27537;57.134;-2.136;2023-02-11T17:22:16;4.43;;;1.70;;
41861;SDS011;27537;57.134;-2.136;2023-02-11T17:24:44;3.42;;;1.48;;
41861;SDS011;27537;57.134;-2.136;2023-02-11T17:27:10;6.57;;;1.90;;
41861;SDS011;27537;57.134;-2.136;2023-02-11T17:29:38;5.35;;;1.80;;